Pennsylvania — WAPZ — position and weather

sailwx.info

Track history (hours):
 
Tides and Currents Weather Stations Pressure Air Temp Water Temp Dewpoint Dewpoint Depression Visibility Wind Speed Wind Dir Waves Ship Positions

Pennsylvania

Owner: Crowley Petroleum Services, Jacksonville, FL. More information available from US FCC via Universal Licensing System and Coast Guard Vessel Documentation Center.

Last reported at 2017-Nov-17 01:23 UTC. Time now 2017-Nov-22 14:43 UTC.
Position N 25°19' W 080°01'.

Length 183 m; draft 8.8 m.

Type: Tanker. MMSI: 338617000.

Date/timePositionNaut miles runAvg speedWind from/ knotsBaromVisibWave heightAir tempDewpointWater temp
2017-Nov-17 01:23N 25°19' W 080°01'614.4
2017-Nov-17 01:00N 25°25' W 080°01'714.5
2017-Nov-17 00:30N 25°32' W 080°00'713.8
2017-Nov-17 00:00N 25°39' W 080°00'713.2
2017-Nov-16 23:30N 25°45' W 080°01'612.5
2017-Nov-16 23:00N 25°51' W 080°02'612.0
2017-Nov-16 22:30N 25°57' W 080°03'510.5
2017-Nov-16 22:00N 26°02' W 080°03'4 8.6
2017-Nov-16 21:31N 26°06' W 080°07'1 1.0
2017-Nov-16 20:59N 26°06' W 080°07'0 0.0
2017-Nov-16 20:29N 26°06' W 080°07'0 0.0
2017-Nov-16 19:59N 26°06' W 080°07'0 0.0
2017-Nov-16 19:29N 26°06' W 080°07'0 0.0
2017-Nov-16 18:59N 26°06' W 080°07'0 0.0
2017-Nov-16 18:20N 26°06' W 080°07'0 0.0
2017-Nov-16 17:50N 26°06' W 080°07'0 0.0
2017-Nov-16 17:20N 26°06' W 080°07'0 0.0
2017-Nov-16 16:53N 26°06' W 080°07'0 0.0
2017-Nov-16 16:23N 26°06' W 080°07'0 0.0
2017-Nov-16 15:53N 26°06' W 080°07'0 0.0
2017-Nov-16 15:23N 26°06' W 080°07'0 0.0
2017-Nov-16 14:53N 26°06' W 080°07'0 0.0
2017-Nov-16 14:26N 26°06' W 080°07'0 0.0
2017-Nov-16 13:56N 26°06' W 080°07'0 0.0
2017-Nov-16 13:26N 26°06' W 080°07'0 0.0
2017-Nov-16 12:56N 26°06' W 080°07'0 0.0
2017-Nov-16 12:26N 26°06' W 080°07'0 0.0
2017-Nov-16 11:56N 26°06' W 080°07'0 0.0
2017-Nov-16 11:26N 26°06' W 080°07'0 0.0
2017-Nov-16 10:56N 26°06' W 080°07'0 0.0
2017-Nov-16 10:29N 26°06' W 080°07'0 0.0
2017-Nov-16 09:59N 26°06' W 080°07'0 0.0
2017-Nov-16 09:29N 26°06' W 080°07'0 0.0
2017-Nov-16 08:59N 26°06' W 080°07'0 0.0
2017-Nov-16 08:29N 26°06' W 080°07'0 0.0
2017-Nov-16 07:59N 26°06' W 080°07'0 0.0
2017-Nov-16 07:29N 26°06' W 080°07'0 0.0
2017-Nov-16 06:59N 26°06' W 080°07'0 0.0
2017-Nov-16 06:29N 26°06' W 080°07'0 0.0
2017-Nov-16 05:59N 26°06' W 080°07'0 0.0
2017-Nov-16 05:29N 26°06' W 080°07'0 0.0
2017-Nov-16 04:59N 26°06' W 080°07'0 0.0
2017-Nov-16 04:29N 26°06' W 080°07'0 0.0
2017-Nov-16 03:59N 26°06' W 080°07'0 0.0
2017-Nov-16 03:29N 26°06' W 080°07'0 0.0
2017-Nov-16 02:50N 26°06' W 080°07'0 0.0
2017-Nov-16 02:20N 26°06' W 080°07'0 0.0
2017-Nov-16 02:00N 26°06' W 080°07'0 0.5
2017-Nov-16 01:30N 26°06' W 080°07'4 7.1
2017-Nov-16 01:00N 26°04' W 080°03'3 5.0
2017-Nov-16 00:30N 26°02' W 080°02'1 1.7
2017-Nov-16 00:00N 26°02' W 080°01'1 1.8
2017-Nov-15 23:30N 26°01' W 080°00'1 1.8
2017-Nov-15 23:00N 26°00' W 079°60'2 3.5
2017-Nov-15 22:30N 25°59' W 079°60'2 4.1
2017-Nov-15 22:00N 25°57' W 079°59'2 4.0
2017-Nov-15 21:30N 25°55' W 079°59'2 4.0
2017-Nov-15 21:00N 25°53' W 079°59'2 4.3
2017-Nov-15 20:30N 25°51' W 079°58'2 4.1
2017-Nov-15 20:00N 25°49' W 079°57'3 5.1
2017-Nov-15 19:30N 25°46' W 079°57'714.6
2017-Nov-15 19:00N 25°39' W 079°55'816.0
2017-Nov-15 18:30N 25°31' W 079°54'815.3
2017-Nov-15 18:00N 25°24' W 079°57'916.0
2017-Nov-15 17:26N 25°16' W 080°01'200 7.2
2017-Nov-14 13:49N 27°38' W 082°38'411.5
2017-Nov-14 13:30N 27°41' W 082°35'611.2
2017-Nov-14 13:00N 27°45' W 082°31'4 7.6
2017-Nov-14 12:28N 27°48' W 082°34'3 7.4
2017-Nov-14 12:00N 27°52' W 082°33'0 0.4
2017-Nov-14 11:25N 27°52' W 082°33'0 0.0
2017-Nov-14 10:58N 27°52' W 082°33'0 0.0
2017-Nov-14 10:25N 27°52' W 082°33'0 0.0
2017-Nov-14 09:58N 27°52' W 082°33'0 0.0
2017-Nov-14 09:28N 27°52' W 082°33'0 0.0
2017-Nov-14 08:58N 27°52' W 082°33'0 0.0
2017-Nov-14 08:28N 27°52' W 082°33'0 0.0
2017-Nov-14 07:55N 27°52' W 082°33'0 0.0
2017-Nov-14 07:25N 27°52' W 082°33'0 0.0
2017-Nov-14 06:58N 27°52' W 082°33'0 0.0
2017-Nov-14 06:25N 27°52' W 082°33'0 0.0
2017-Nov-14 05:55N 27°52' W 082°33'0 0.0
2017-Nov-14 05:28N 27°52' W 082°33'0 0.0
2017-Nov-14 04:58N 27°52' W 082°33'0 0.0
2017-Nov-14 04:28N 27°52' W 082°33'0 0.0
2017-Nov-14 03:58N 27°52' W 082°33'0 0.0
2017-Nov-14 03:28N 27°52' W 082°33'0 0.0
2017-Nov-14 02:58N 27°52' W 082°33'0 0.0
2017-Nov-14 02:28N 27°52' W 082°33'0 0.0
2017-Nov-14 01:58N 27°52' W 082°33'0 0.0
2017-Nov-14 01:25N 27°52' W 082°33'0 0.0
2017-Nov-14 00:58N 27°52' W 082°33'0 0.0
2017-Nov-14 00:25N 27°52' W 082°33'0 0.0
2017-Nov-13 23:58N 27°52' W 082°33'0 0.0
2017-Nov-13 23:28N 27°52' W 082°33'0 0.0
2017-Nov-13 22:58N 27°52' W 082°33'0 0.0
2017-Nov-13 22:25N 27°52' W 082°33'0 0.0
2017-Nov-13 21:58N 27°52' W 082°33'7 0.3
2017-Nov-13 01:56N 27°55' W 082°27'0 0.0
2017-Nov-13 01:29N 27°55' W 082°27'0 0.0
2017-Nov-13 00:59N 27°55' W 082°27'0 0.0
2017-Nov-13 00:29N 27°55' W 082°27'0 0.0
2017-Nov-12 23:59N 27°55' W 082°27'0 0.0
2017-Nov-12 23:29N 27°55' W 082°27'0 0.0
2017-Nov-12 22:59N 27°55' W 082°27'0 0.0
2017-Nov-12 22:29N 27°55' W 082°27'0 0.0
2017-Nov-12 21:59N 27°55' W 082°27'0 0.0
2017-Nov-12 21:26N 27°55' W 082°27'0 0.0
2017-Nov-12 20:59N 27°55' W 082°27'0 0.0
2017-Nov-12 20:29N 27°55' W 082°27'0 0.0
2017-Nov-12 19:59N 27°55' W 082°27'0 0.0
2017-Nov-12 19:29N 27°55' W 082°27'0 0.0
2017-Nov-12 18:59N 27°55' W 082°27'0 0.0
2017-Nov-12 18:29N 27°55' W 082°27'0 0.0
2017-Nov-12 17:56N 27°55' W 082°27'0 0.0
2017-Nov-12 17:29N 27°55' W 082°27'0 0.0
2017-Nov-12 16:59N 27°55' W 082°27'0 0.0
2017-Nov-12 16:29N 27°55' W 082°27'0 0.0
2017-Nov-12 15:59N 27°55' W 082°27'0 0.0
2017-Nov-12 15:29N 27°55' W 082°27'0 0.0
2017-Nov-12 14:59N 27°55' W 082°27'0 0.0
2017-Nov-12 14:29N 27°55' W 082°27'0 0.0
2017-Nov-12 13:59N 27°55' W 082°27'0 0.0
2017-Nov-12 13:29N 27°55' W 082°27'0 0.0
2017-Nov-12 12:59N 27°55' W 082°27'0 0.0
2017-Nov-12 12:29N 27°55' W 082°27'0 0.0
2017-Nov-12 11:59N 27°55' W 082°27'0 0.0
2017-Nov-12 11:29N 27°55' W 082°27'0 0.0
2017-Nov-12 10:59N 27°55' W 082°27'0 0.0
2017-Nov-12 10:26N 27°55' W 082°27'0 0.1
2017-Nov-12 10:00N 27°55' W 082°27'2 3.5
2017-Nov-12 09:30N 27°53' W 082°26'510.0
2017-Nov-12 09:00N 27°48' W 082°28'510.0
2017-Nov-12 08:30N 27°45' W 082°32'911.0
2017-Nov-12 07:42N 27°38' W 082°38'  
2017-Nov-07 05:59N 29°47' W 093°57'5 8.5
2017-Nov-07 05:25N 29°44' W 093°52'  
Track history (hours):
 
Tides and Currents Weather Stations Pressure Air Temp Water Temp Dewpoint Dewpoint Depression Visibility Wind Speed Wind Dir Waves Ship Positions

Pennsylvania

Owner: Crowley Petroleum Services, Jacksonville, FL. More information available from US FCC via Universal Licensing System and Coast Guard Vessel Documentation Center.

Last reported at 2017-Nov-17 01:23 UTC. Time now 2017-Nov-22 14:43 UTC.
Position N 25°19' W 080°01'.

Length 183 m; draft 8.8 m.

Type: Tanker. MMSI: 338617000.

Date/timePositionNaut miles runAvg speedWind from/ knotsBaromVisibWave heightAir tempDewpointWater temp
2017-Nov-17 01:23N 25°19' W 080°01'614.4
2017-Nov-17 01:00N 25°25' W 080°01'714.5
2017-Nov-17 00:30N 25°32' W 080°00'713.8
2017-Nov-17 00:00N 25°39' W 080°00'713.2
2017-Nov-16 23:30N 25°45' W 080°01'612.5
2017-Nov-16 23:00N 25°51' W 080°02'612.0
2017-Nov-16 22:30N 25°57' W 080°03'510.5
2017-Nov-16 22:00N 26°02' W 080°03'4 8.6
2017-Nov-16 21:31N 26°06' W 080°07'1 1.0
2017-Nov-16 20:59N 26°06' W 080°07'0 0.0
2017-Nov-16 20:29N 26°06' W 080°07'0 0.0
2017-Nov-16 19:59N 26°06' W 080°07'0 0.0
2017-Nov-16 19:29N 26°06' W 080°07'0 0.0
2017-Nov-16 18:59N 26°06' W 080°07'0 0.0
2017-Nov-16 18:20N 26°06' W 080°07'0 0.0
2017-Nov-16 17:50N 26°06' W 080°07'0 0.0
2017-Nov-16 17:20N 26°06' W 080°07'0 0.0
2017-Nov-16 16:53N 26°06' W 080°07'0 0.0
2017-Nov-16 16:23N 26°06' W 080°07'0 0.0
2017-Nov-16 15:53N 26°06' W 080°07'0 0.0
2017-Nov-16 15:23N 26°06' W 080°07'0 0.0
2017-Nov-16 14:53N 26°06' W 080°07'0 0.0
2017-Nov-16 14:26N 26°06' W 080°07'0 0.0
2017-Nov-16 13:56N 26°06' W 080°07'0 0.0
2017-Nov-16 13:26N 26°06' W 080°07'0 0.0
2017-Nov-16 12:56N 26°06' W 080°07'0 0.0
2017-Nov-16 12:26N 26°06' W 080°07'0 0.0
2017-Nov-16 11:56N 26°06' W 080°07'0 0.0
2017-Nov-16 11:26N 26°06' W 080°07'0 0.0
2017-Nov-16 10:56N 26°06' W 080°07'0 0.0
2017-Nov-16 10:29N 26°06' W 080°07'0 0.0
2017-Nov-16 09:59N 26°06' W 080°07'0 0.0
2017-Nov-16 09:29N 26°06' W 080°07'0 0.0
2017-Nov-16 08:59N 26°06' W 080°07'0 0.0
2017-Nov-16 08:29N 26°06' W 080°07'0 0.0
2017-Nov-16 07:59N 26°06' W 080°07'0 0.0
2017-Nov-16 07:29N 26°06' W 080°07'0 0.0
2017-Nov-16 06:59N 26°06' W 080°07'0 0.0
2017-Nov-16 06:29N 26°06' W 080°07'0 0.0
2017-Nov-16 05:59N 26°06' W 080°07'0 0.0
2017-Nov-16 05:29N 26°06' W 080°07'0 0.0
2017-Nov-16 04:59N 26°06' W 080°07'0 0.0
2017-Nov-16 04:29N 26°06' W 080°07'0 0.0
2017-Nov-16 03:59N 26°06' W 080°07'0 0.0
2017-Nov-16 03:29N 26°06' W 080°07'0 0.0
2017-Nov-16 02:50N 26°06' W 080°07'0 0.0
2017-Nov-16 02:20N 26°06' W 080°07'0 0.0
2017-Nov-16 02:00N 26°06' W 080°07'0 0.5
2017-Nov-16 01:30N 26°06' W 080°07'4 7.1
2017-Nov-16 01:00N 26°04' W 080°03'3 5.0
2017-Nov-16 00:30N 26°02' W 080°02'1 1.7
2017-Nov-16 00:00N 26°02' W 080°01'1 1.8
2017-Nov-15 23:30N 26°01' W 080°00'1 1.8
2017-Nov-15 23:00N 26°00' W 079°60'2 3.5
2017-Nov-15 22:30N 25°59' W 079°60'2 4.1
2017-Nov-15 22:00N 25°57' W 079°59'2 4.0
2017-Nov-15 21:30N 25°55' W 079°59'2 4.0
2017-Nov-15 21:00N 25°53' W 079°59'2 4.3
2017-Nov-15 20:30N 25°51' W 079°58'2 4.1
2017-Nov-15 20:00N 25°49' W 079°57'3 5.1
2017-Nov-15 19:30N 25°46' W 079°57'714.6
2017-Nov-15 19:00N 25°39' W 079°55'816.0
2017-Nov-15 18:30N 25°31' W 079°54'815.3
2017-Nov-15 18:00N 25°24' W 079°57'916.0
2017-Nov-15 17:26N 25°16' W 080°01'200 7.2
2017-Nov-14 13:49N 27°38' W 082°38'411.5
2017-Nov-14 13:30N 27°41' W 082°35'611.2
2017-Nov-14 13:00N 27°45' W 082°31'4 7.6
2017-Nov-14 12:28N 27°48' W 082°34'3 7.4
2017-Nov-14 12:00N 27°52' W 082°33'0 0.4
2017-Nov-14 11:25N 27°52' W 082°33'0 0.0
2017-Nov-14 10:58N 27°52' W 082°33'0 0.0
2017-Nov-14 10:25N 27°52' W 082°33'0 0.0
2017-Nov-14 09:58N 27°52' W 082°33'0 0.0
2017-Nov-14 09:28N 27°52' W 082°33'0 0.0
2017-Nov-14 08:58N 27°52' W 082°33'0 0.0
2017-Nov-14 08:28N 27°52' W 082°33'0 0.0
2017-Nov-14 07:55N 27°52' W 082°33'0 0.0
2017-Nov-14 07:25N 27°52' W 082°33'0 0.0
2017-Nov-14 06:58N 27°52' W 082°33'0 0.0
2017-Nov-14 06:25N 27°52' W 082°33'0 0.0
2017-Nov-14 05:55N 27°52' W 082°33'0 0.0
2017-Nov-14 05:28N 27°52' W 082°33'0 0.0
2017-Nov-14 04:58N 27°52' W 082°33'0 0.0
2017-Nov-14 04:28N 27°52' W 082°33'0 0.0
2017-Nov-14 03:58N 27°52' W 082°33'0 0.0
2017-Nov-14 03:28N 27°52' W 082°33'0 0.0
2017-Nov-14 02:58N 27°52' W 082°33'0 0.0
2017-Nov-14 02:28N 27°52' W 082°33'0 0.0
2017-Nov-14 01:58N 27°52' W 082°33'0 0.0
2017-Nov-14 01:25N 27°52' W 082°33'0 0.0
2017-Nov-14 00:58N 27°52' W 082°33'0 0.0
2017-Nov-14 00:25N 27°52' W 082°33'0 0.0
2017-Nov-13 23:58N 27°52' W 082°33'0 0.0
2017-Nov-13 23:28N 27°52' W 082°33'0 0.0
2017-Nov-13 22:58N 27°52' W 082°33'0 0.0
2017-Nov-13 22:25N 27°52' W 082°33'0 0.0
2017-Nov-13 21:58N 27°52' W 082°33'7 0.3
2017-Nov-13 01:56N 27°55' W 082°27'0 0.0
2017-Nov-13 01:29N 27°55' W 082°27'0 0.0
2017-Nov-13 00:59N 27°55' W 082°27'0 0.0
2017-Nov-13 00:29N 27°55' W 082°27'0 0.0
2017-Nov-12 23:59N 27°55' W 082°27'0 0.0
2017-Nov-12 23:29N 27°55' W 082°27'0 0.0
2017-Nov-12 22:59N 27°55' W 082°27'0 0.0
2017-Nov-12 22:29N 27°55' W 082°27'0 0.0
2017-Nov-12 21:59N 27°55' W 082°27'0 0.0
2017-Nov-12 21:26N 27°55' W 082°27'0 0.0
2017-Nov-12 20:59N 27°55' W 082°27'0 0.0
2017-Nov-12 20:29N 27°55' W 082°27'0 0.0
2017-Nov-12 19:59N 27°55' W 082°27'0 0.0
2017-Nov-12 19:29N 27°55' W 082°27'0 0.0
2017-Nov-12 18:59N 27°55' W 082°27'0 0.0
2017-Nov-12 18:29N 27°55' W 082°27'0 0.0
2017-Nov-12 17:56N 27°55' W 082°27'0 0.0
2017-Nov-12 17:29N 27°55' W 082°27'0 0.0
2017-Nov-12 16:59N 27°55' W 082°27'0 0.0
2017-Nov-12 16:29N 27°55' W 082°27'0 0.0
2017-Nov-12 15:59N 27°55' W 082°27'0 0.0
2017-Nov-12 15:29N 27°55' W 082°27'0 0.0
2017-Nov-12 14:59N 27°55' W 082°27'0 0.0
2017-Nov-12 14:29N 27°55' W 082°27'0 0.0
2017-Nov-12 13:59N 27°55' W 082°27'0 0.0
2017-Nov-12 13:29N 27°55' W 082°27'0 0.0
2017-Nov-12 12:59N 27°55' W 082°27'0 0.0
2017-Nov-12 12:29N 27°55' W 082°27'0 0.0
2017-Nov-12 11:59N 27°55' W 082°27'0 0.0
2017-Nov-12 11:29N 27°55' W 082°27'0 0.0
2017-Nov-12 10:59N 27°55' W 082°27'0 0.0
2017-Nov-12 10:26N 27°55' W 082°27'0 0.1
2017-Nov-12 10:00N 27°55' W 082°27'2 3.5
2017-Nov-12 09:30N 27°53' W 082°26'510.0
2017-Nov-12 09:00N 27°48' W 082°28'510.0
2017-Nov-12 08:30N 27°45' W 082°32'911.0
2017-Nov-12 07:42N 27°38' W 082°38'  
2017-Nov-07 05:59N 29°47' W 093°57'5 8.5
2017-Nov-07 05:25N 29°44' W 093°52'  

Dump ship's entire track history